Aviation Digital Data Service (ADDS)

Output produced by METARs form (1334 UTC 24 August 2019)
found at http://www.aviationweather.gov/metar/data/
 
METAR text: OIKB 241330Z 17010KT 5000 HZ FEW030 35/29 Q1000 A2955
Conditions at: OIKB (BANDAR ABBAS INT, IR) observed 1330 UTC 24 August 2019
Temperature: 35.0°C (95°F)
Dewpoint: 29.0°C (84°F) [RH = 71%]
Pressure (altimeter): 29.53 inches Hg (1000.0 mb)
Winds: from the S (170 degrees) at 12 MPH (10 knots; 5.1 m/s)
Visibility: 3 miles ( 5 km)
Ceiling: at least 12,000 feet AGL
Clouds: few clouds at 3000 feet AGL
Weather: HZ  (haze)

METAR text: OIKB 241300Z 19012KT 5000 HZ FEW030 35/29 Q1000 A2955
Conditions at: OIKB (BANDAR ABBAS INT, IR) observed 1300 UTC 24 August 2019
Temperature: 35.0°C (95°F)
Dewpoint: 29.0°C (84°F) [RH = 71%]
Pressure (altimeter): 29.53 inches Hg (1000.0 mb)
Winds: from the S (190 degrees) at 14 MPH (12 knots; 6.2 m/s)
Visibility: 3 miles ( 5 km)
Ceiling: at least 12,000 feet AGL
Clouds: few clouds at 3000 feet AGL
Weather: HZ  (haze)

METAR text: OIKB 241230Z 16008KT 5000 HZ NSC 36/28 Q1000 A2955
Conditions at: OIKB (BANDAR ABBAS INT, IR) observed 1230 UTC 24 August 2019
Temperature: 36.0°C (97°F)
Dewpoint: 28.0°C (82°F) [RH = 64%]
Pressure (altimeter): 29.53 inches Hg (1000.0 mb)
Winds: from the SSE (160 degrees) at 9 MPH (8 knots; 4.1 m/s)
Visibility: 3 miles ( 5 km)
Ceiling: at least 12,000 feet AGL
Clouds: sky clear below 12,000 feet AGL
Weather: HZ  (haze)

METAR text: OIKB 241225Z 16008KT 5000 HZ NSC 36/28 Q1000 A2955
Conditions at: OIKB (BANDAR ABBAS INT, IR) observed 1225 UTC 24 August 2019
Temperature: 36.0°C (97°F)
Dewpoint: 28.0°C (82°F) [RH = 64%]
Pressure (altimeter): 29.53 inches Hg (1000.0 mb)
Winds: from the SSE (160 degrees) at 9 MPH (8 knots; 4.1 m/s)
Visibility: 3 miles ( 5 km)
Ceiling: at least 12,000 feet AGL
Clouds: sky clear below 12,000 feet AGL
Weather: HZ  (haze)

METAR text: OIKB 241200Z 17008KT 5000 HZ FEW030 36/28 Q1001 A2956
Conditions at: OIKB (BANDAR ABBAS INT, IR) observed 1200 UTC 24 August 2019
Temperature: 36.0°C (97°F)
Dewpoint: 28.0°C (82°F) [RH = 64%]
Pressure (altimeter): 29.56 inches Hg (1001.0 mb)
Winds: from the S (170 degrees) at 9 MPH (8 knots; 4.1 m/s)
Visibility: 3 miles ( 5 km)
Ceiling: at least 12,000 feet AGL
Clouds: few clouds at 3000 feet AGL
Weather: HZ  (haze)

METAR text: OIKB 241130Z 17010KT 5000 HZ FEW030 35/29 Q1001 A2958
Conditions at: OIKB (BANDAR ABBAS INT, IR) observed 1130 UTC 24 August 2019
Temperature: 35.0°C (95°F)
Dewpoint: 29.0°C (84°F) [RH = 71%]
Pressure (altimeter): 29.56 inches Hg (1001.0 mb)
Winds: from the S (170 degrees) at 12 MPH (10 knots; 5.1 m/s)
Visibility: 3 miles ( 5 km)
Ceiling: at least 12,000 feet AGL
Clouds: few clouds at 3000 feet AGL
Weather: HZ  (haze)

METAR text: OIKB 241125Z 17010KT 5000 HZ FEW030 35/29 Q1001 A2958
Conditions at: OIKB (BANDAR ABBAS INT, IR) observed 1125 UTC 24 August 2019
Temperature: 35.0°C (95°F)
Dewpoint: 29.0°C (84°F) [RH = 71%]
Pressure (altimeter): 29.56 inches Hg (1001.0 mb)
Winds: from the S (170 degrees) at 12 MPH (10 knots; 5.1 m/s)
Visibility: 3 miles ( 5 km)
Ceiling: at least 12,000 feet AGL
Clouds: few clouds at 3000 feet AGL
Weather: HZ  (haze)

METAR text: OIKB 241100Z 16008KT 5000 HZ FEW030 36/29 Q1002 A2959
Conditions at: OIKB (BANDAR ABBAS INT, IR) observed 1100 UTC 24 August 2019
Temperature: 36.0°C (97°F)
Dewpoint: 29.0°C (84°F) [RH = 67%]
Pressure (altimeter): 29.59 inches Hg (1002.0 mb)
Winds: from the SSE (160 degrees) at 9 MPH (8 knots; 4.1 m/s)
Visibility: 3 miles ( 5 km)
Ceiling: at least 12,000 feet AGL
Clouds: few clouds at 3000 feet AGL
Weather: HZ  (haze)

METAR text: OIKB 241030Z 19014KT 5000 HZ FEW030 35/28 Q1002 A2960
Conditions at: OIKB (BANDAR ABBAS INT, IR) observed 1030 UTC 24 August 2019
Temperature: 35.0°C (95°F)
Dewpoint: 28.0°C (82°F) [RH = 67%]
Pressure (altimeter): 29.59 inches Hg (1002.0 mb)
Winds: from the S (190 degrees) at 16 MPH (14 knots; 7.2 m/s)
Visibility: 3 miles ( 5 km)
Ceiling: at least 12,000 feet AGL
Clouds: few clouds at 3000 feet AGL
Weather: HZ  (haze)

METAR text: OIKB 241000Z 20014KT 5000 HZ FEW030 36/28 Q1002 A2961
Conditions at: OIKB (BANDAR ABBAS INT, IR) observed 1000 UTC 24 August 2019
Temperature: 36.0°C (97°F)
Dewpoint: 28.0°C (82°F) [RH = 64%]
Pressure (altimeter): 29.59 inches Hg (1002.0 mb)
Winds: from the SSW (200 degrees) at 16 MPH (14 knots; 7.2 m/s)
Visibility: 3 miles ( 5 km)
Ceiling: at least 12,000 feet AGL
Clouds: few clouds at 3000 feet AGL
Weather: HZ  (haze)

METAR text: OIKB 240930Z 18012KT 5000 HZ FEW030 35/28 Q1003 A2962
Conditions at: OIKB (BANDAR ABBAS INT, IR) observed 0930 UTC 24 August 2019
Temperature: 35.0°C (95°F)
Dewpoint: 28.0°C (82°F) [RH = 67%]
Pressure (altimeter): 29.62 inches Hg (1003.0 mb)
Winds: from the S (180 degrees) at 14 MPH (12 knots; 6.2 m/s)
Visibility: 3 miles ( 5 km)
Ceiling: at least 12,000 feet AGL
Clouds: few clouds at 3000 feet AGL
Weather: HZ  (haze)

METAR text: OIKB 240900Z 19014KT 5000 HZ FEW030 35/28 Q1003 A2964 NOSIG
Conditions at: OIKB (BANDAR ABBAS INT, IR) observed 0900 UTC 24 August 2019
Temperature: 35.0°C (95°F)
Dewpoint: 28.0°C (82°F) [RH = 67%]
Pressure (altimeter): 29.62 inches Hg (1003.0 mb)
Winds: from the S (190 degrees) at 16 MPH (14 knots; 7.2 m/s)
Visibility: 3 miles ( 5 km)
Ceiling: at least 12,000 feet AGL
Clouds: few clouds at 3000 feet AGL
Weather: HZ  (haze)

METAR text: OIKB 240830Z 19014KT 5000 HZ FEW030 35/28 Q1004 A2965
Conditions at: OIKB (BANDAR ABBAS INT, IR) observed 0830 UTC 24 August 2019
Temperature: 35.0°C (95°F)
Dewpoint: 28.0°C (82°F) [RH = 67%]
Pressure (altimeter): 29.65 inches Hg (1004.0 mb)
Winds: from the S (190 degrees) at 16 MPH (14 knots; 7.2 m/s)
Visibility: 3 miles ( 5 km)
Ceiling: at least 12,000 feet AGL
Clouds: few clouds at 3000 feet AGL
Weather: HZ  (haze)

METAR text: OIKB 240800Z 17012KT 5000 HZ NSC 35/29 Q1004 A2967 NOSIG
Conditions at: OIKB (BANDAR ABBAS INT, IR) observed 0800 UTC 24 August 2019
Temperature: 35.0°C (95°F)
Dewpoint: 29.0°C (84°F) [RH = 71%]
Pressure (altimeter): 29.65 inches Hg (1004.0 mb)
Winds: from the S (170 degrees) at 14 MPH (12 knots; 6.2 m/s)
Visibility: 3 miles ( 5 km)
Ceiling: at least 12,000 feet AGL
Clouds: sky clear below 12,000 feet AGL
Weather: HZ  (haze)

METAR text: OIKB 240730Z 17010KT 5000 HZ NSC 35/29 Q1005 A2968
Conditions at: OIKB (BANDAR ABBAS INT, IR) observed 0730 UTC 24 August 2019
Temperature: 35.0°C (95°F)
Dewpoint: 29.0°C (84°F) [RH = 71%]
Pressure (altimeter): 29.68 inches Hg (1005.0 mb)
Winds: from the S (170 degrees) at 12 MPH (10 knots; 5.1 m/s)
Visibility: 3 miles ( 5 km)
Ceiling: at least 12,000 feet AGL
Clouds: sky clear below 12,000 feet AGL
Weather: HZ  (haze)

METAR text: OIKB 240700Z 17008KT 5000 HZ NSC 36/28 Q1005 A2969 NOSIG
Conditions at: OIKB (BANDAR ABBAS INT, IR) observed 0700 UTC 24 August 2019
Temperature: 36.0°C (97°F)
Dewpoint: 28.0°C (82°F) [RH = 64%]
Pressure (altimeter): 29.68 inches Hg (1005.0 mb)
Winds: from the S (170 degrees) at 9 MPH (8 knots; 4.1 m/s)
Visibility: 3 miles ( 5 km)
Ceiling: at least 12,000 feet AGL
Clouds: sky clear below 12,000 feet AGL
Weather: HZ  (haze)

METAR text: OIKB 240630Z 17008KT 5000 HZ NSC 36/27 Q1005 A2969
Conditions at: OIKB (BANDAR ABBAS INT, IR) observed 0630 UTC 24 August 2019
Temperature: 36.0°C (97°F)
Dewpoint: 27.0°C (81°F) [RH = 60%]
Pressure (altimeter): 29.68 inches Hg (1005.0 mb)
Winds: from the S (170 degrees) at 9 MPH (8 knots; 4.1 m/s)
Visibility: 3 miles ( 5 km)
Ceiling: at least 12,000 feet AGL
Clouds: sky clear below 12,000 feet AGL
Weather: HZ  (haze)

METAR text: OIKB 240600Z 16008KT 5000 HZ NSC 35/28 Q1005 A2969 NOSIG
Conditions at: OIKB (BANDAR ABBAS INT, IR) observed 0600 UTC 24 August 2019
Temperature: 35.0°C (95°F)
Dewpoint: 28.0°C (82°F) [RH = 67%]
Pressure (altimeter): 29.68 inches Hg (1005.0 mb)
Winds: from the SSE (160 degrees) at 9 MPH (8 knots; 4.1 m/s)
Visibility: 3 miles ( 5 km)
Ceiling: at least 12,000 feet AGL
Clouds: sky clear below 12,000 feet AGL
Weather: HZ  (haze)

METAR text: OIKB 240530Z 16004KT 5000 HZ NSC 35/28 Q1005 A2970
Conditions at: OIKB (BANDAR ABBAS INT, IR) observed 0530 UTC 24 August 2019
Temperature: 35.0°C (95°F)
Dewpoint: 28.0°C (82°F) [RH = 67%]
Pressure (altimeter): 29.68 inches Hg (1005.0 mb)
Winds: from the SSE (160 degrees) at 5 MPH (4 knots; 2.1 m/s)
Visibility: 3 miles ( 5 km)
Ceiling: at least 12,000 feet AGL
Clouds: sky clear below 12,000 feet AGL
Weather: HZ  (haze)

METAR text: OIKB 240500Z VRB02KT 5000 HZ NSC 34/27 Q1005 A2970 NOSIG
Conditions at: OIKB (BANDAR ABBAS INT, IR) observed 0500 UTC 24 August 2019
Temperature: 34.0°C (93°F)
Dewpoint: 27.0°C (81°F) [RH = 67%]
Pressure (altimeter): 29.68 inches Hg (1005.0 mb)
Winds: variable direction winds at 2 MPH (2 knots; 1.0 m/s)
Visibility: 3 miles ( 5 km)
Ceiling: at least 12,000 feet AGL
Clouds: sky clear below 12,000 feet AGL
Weather: HZ  (haze)

METAR text: OIKB 240430Z VRB02KT 5000 HZ NSC 34/28 Q1005 A2969
Conditions at: OIKB (BANDAR ABBAS INT, IR) observed 0430 UTC 24 August 2019
Temperature: 34.0°C (93°F)
Dewpoint: 28.0°C (82°F) [RH = 71%]
Pressure (altimeter): 29.68 inches Hg (1005.0 mb)
Winds: variable direction winds at 2 MPH (2 knots; 1.0 m/s)
Visibility: 3 miles ( 5 km)
Ceiling: at least 12,000 feet AGL
Clouds: sky clear below 12,000 feet AGL
Weather: HZ  (haze)

METAR text: OIKB 240400Z VRB02KT 4000 HZ NSC 33/28 Q1005 A2968 NOSIG
Conditions at: OIKB (BANDAR ABBAS INT, IR) observed 0400 UTC 24 August 2019
Temperature: 33.0°C (91°F)
Dewpoint: 28.0°C (82°F) [RH = 75%]
Pressure (altimeter): 29.68 inches Hg (1005.0 mb)
Winds: variable direction winds at 2 MPH (2 knots; 1.0 m/s)
Visibility: 2.49 miles (4.01 km)
Ceiling: at least 12,000 feet AGL
Clouds: sky clear below 12,000 feet AGL
Weather: HZ  (haze)

METAR text: OIKB 240330Z 36004KT 4000 BR NSC 32/28 Q1004 A2967
Conditions at: OIKB (BANDAR ABBAS INT, IR) observed 0330 UTC 24 August 2019
Temperature: 32.0°C (90°F)
Dewpoint: 28.0°C (82°F) [RH = 80%]
Pressure (altimeter): 29.65 inches Hg (1004.0 mb)
Winds: from the N (360 degrees) at 5 MPH (4 knots; 2.1 m/s)
Visibility: 2.49 miles (4.01 km)
Ceiling: at least 12,000 feet AGL
Clouds: sky clear below 12,000 feet AGL
Weather: BR  (mist)

METAR text: OIKB 240300Z 35004KT 4000 BR NSC 30/28 Q1004 A2966 NOSIG
Conditions at: OIKB (BANDAR ABBAS INT, IR) observed 0300 UTC 24 August 2019
Temperature: 30.0°C (86°F)
Dewpoint: 28.0°C (82°F) [RH = 89%]
Pressure (altimeter): 29.65 inches Hg (1004.0 mb)
Winds: from the N (350 degrees) at 5 MPH (4 knots; 2.1 m/s)
Visibility: 2.49 miles (4.01 km)
Ceiling: at least 12,000 feet AGL
Clouds: sky clear below 12,000 feet AGL
Weather: BR  (mist)

METAR text: OIKB 240230Z 36004KT 4000 BR NSC 29/27 Q1004 A2965
Conditions at: OIKB (BANDAR ABBAS INT, IR) observed 0230 UTC 24 August 2019
Temperature: 29.0°C (84°F)
Dewpoint: 27.0°C (81°F) [RH = 89%]
Pressure (altimeter): 29.65 inches Hg (1004.0 mb)
Winds: from the N (360 degrees) at 5 MPH (4 knots; 2.1 m/s)
Visibility: 2.49 miles (4.01 km)
Ceiling: at least 12,000 feet AGL
Clouds: sky clear below 12,000 feet AGL
Weather: BR  (mist)

METAR text: OIKB 240200Z 35004KT 4000 BR NSC 29/27 Q1003 A2965
Conditions at: OIKB (BANDAR ABBAS INT, IR) observed 0200 UTC 24 August 2019
Temperature: 29.0°C (84°F)
Dewpoint: 27.0°C (81°F) [RH = 89%]
Pressure (altimeter): 29.62 inches Hg (1003.0 mb)
Winds: from the N (350 degrees) at 5 MPH (4 knots; 2.1 m/s)
Visibility: 2.49 miles (4.01 km)
Ceiling: at least 12,000 feet AGL
Clouds: sky clear below 12,000 feet AGL
Weather: BR  (mist)

METAR text: OIKB 240100Z 34004KT 4000 BR NSC 30/27 Q1003 A2962
Conditions at: OIKB (BANDAR ABBAS INT, IR) observed 0100 UTC 24 August 2019
Temperature: 30.0°C (86°F)
Dewpoint: 27.0°C (81°F) [RH = 84%]
Pressure (altimeter): 29.62 inches Hg (1003.0 mb)
Winds: from the NNW (340 degrees) at 5 MPH (4 knots; 2.1 m/s)
Visibility: 2.49 miles (4.01 km)
Ceiling: at least 12,000 feet AGL
Clouds: sky clear below 12,000 feet AGL
Weather: BR  (mist)

METAR text: OIKB 240000Z 02004KT 4000 BR NSC 30/27 Q1003 A2962
Conditions at: OIKB (BANDAR ABBAS INT, IR) observed 0000 UTC 24 August 2019
Temperature: 30.0°C (86°F)
Dewpoint: 27.0°C (81°F) [RH = 84%]
Pressure (altimeter): 29.62 inches Hg (1003.0 mb)
Winds: from the NNE (20 degrees) at 5 MPH (4 knots; 2.1 m/s)
Visibility: 2.49 miles (4.01 km)
Ceiling: at least 12,000 feet AGL
Clouds: sky clear below 12,000 feet AGL
Weather: BR  (mist)

METAR text: OIKB 232300Z 06004KT 4000 BR NSC 30/27 Q1003 A2962
Conditions at: OIKB (BANDAR ABBAS INT, IR) observed 2300 UTC 23 August 2019
Temperature: 30.0°C (86°F)
Dewpoint: 27.0°C (81°F) [RH = 84%]
Pressure (altimeter): 29.62 inches Hg (1003.0 mb)
Winds: from the ENE (60 degrees) at 5 MPH (4 knots; 2.1 m/s)
Visibility: 2.49 miles (4.01 km)
Ceiling: at least 12,000 feet AGL
Clouds: sky clear below 12,000 feet AGL
Weather: BR  (mist)

METAR text: OIKB 232200Z 06006KT 4000 BR NSC 31/27 Q1003 A2962
Conditions at: OIKB (BANDAR ABBAS INT, IR) observed 2200 UTC 23 August 2019
Temperature: 31.0°C (88°F)
Dewpoint: 27.0°C (81°F) [RH = 79%]
Pressure (altimeter): 29.62 inches Hg (1003.0 mb)
Winds: from the ENE (60 degrees) at 7 MPH (6 knots; 3.1 m/s)
Visibility: 2.49 miles (4.01 km)
Ceiling: at least 12,000 feet AGL
Clouds: sky clear below 12,000 feet AGL
Weather: BR  (mist)

METAR text: OIKB 232130Z 06006KT 4000 BR NSC 31/27 Q1003 A2962
Conditions at: OIKB (BANDAR ABBAS INT, IR) observed 2130 UTC 23 August 2019
Temperature: 31.0°C (88°F)
Dewpoint: 27.0°C (81°F) [RH = 79%]
Pressure (altimeter): 29.62 inches Hg (1003.0 mb)
Winds: from the ENE (60 degrees) at 7 MPH (6 knots; 3.1 m/s)
Visibility: 2.49 miles (4.01 km)
Ceiling: at least 12,000 feet AGL
Clouds: sky clear below 12,000 feet AGL
Weather: BR  (mist)

METAR text: OIKB 232100Z 06006KT 4000 BR NSC 31/27 Q1003 A2962
Conditions at: OIKB (BANDAR ABBAS INT, IR) observed 2100 UTC 23 August 2019
Temperature: 31.0°C (88°F)
Dewpoint: 27.0°C (81°F) [RH = 79%]
Pressure (altimeter): 29.62 inches Hg (1003.0 mb)
Winds: from the ENE (60 degrees) at 7 MPH (6 knots; 3.1 m/s)
Visibility: 2.49 miles (4.01 km)
Ceiling: at least 12,000 feet AGL
Clouds: sky clear below 12,000 feet AGL
Weather: BR  (mist)

METAR text: OIKB 232030Z 06006KT 4000 BR NSC 31/28 Q1003 A2963
Conditions at: OIKB (BANDAR ABBAS INT, IR) observed 2030 UTC 23 August 2019
Temperature: 31.0°C (88°F)
Dewpoint: 28.0°C (82°F) [RH = 84%]
Pressure (altimeter): 29.62 inches Hg (1003.0 mb)
Winds: from the ENE (60 degrees) at 7 MPH (6 knots; 3.1 m/s)
Visibility: 2.49 miles (4.01 km)
Ceiling: at least 12,000 feet AGL
Clouds: sky clear below 12,000 feet AGL
Weather: BR  (mist)

METAR text: OIKB 232000Z 06006KT 4000 BR NSC 31/28 Q1003 A2963
Conditions at: OIKB (BANDAR ABBAS INT, IR) observed 2000 UTC 23 August 2019
Temperature: 31.0°C (88°F)
Dewpoint: 28.0°C (82°F) [RH = 84%]
Pressure (altimeter): 29.62 inches Hg (1003.0 mb)
Winds: from the ENE (60 degrees) at 7 MPH (6 knots; 3.1 m/s)
Visibility: 2.49 miles (4.01 km)
Ceiling: at least 12,000 feet AGL
Clouds: sky clear below 12,000 feet AGL
Weather: BR  (mist)

METAR text: OIKB 231930Z 07006KT 5000 BR NSC 31/28 Q1003 A2963
Conditions at: OIKB (BANDAR ABBAS INT, IR) observed 1930 UTC 23 August 2019
Temperature: 31.0°C (88°F)
Dewpoint: 28.0°C (82°F) [RH = 84%]
Pressure (altimeter): 29.62 inches Hg (1003.0 mb)
Winds: from the ENE (70 degrees) at 7 MPH (6 knots; 3.1 m/s)
Visibility: 3 miles ( 5 km)
Ceiling: at least 12,000 feet AGL
Clouds: sky clear below 12,000 feet AGL
Weather: BR  (mist)

METAR text: OIKB 231900Z 07006KT 5000 BR NSC 31/28 Q1003 A2963
Conditions at: OIKB (BANDAR ABBAS INT, IR) observed 1900 UTC 23 August 2019
Temperature: 31.0°C (88°F)
Dewpoint: 28.0°C (82°F) [RH = 84%]
Pressure (altimeter): 29.62 inches Hg (1003.0 mb)
Winds: from the ENE (70 degrees) at 7 MPH (6 knots; 3.1 m/s)
Visibility: 3 miles ( 5 km)
Ceiling: at least 12,000 feet AGL
Clouds: sky clear below 12,000 feet AGL
Weather: BR  (mist)

METAR text: OIKB 231830Z 06006KT 5000 BR NSC 32/28 Q1003 A2963
Conditions at: OIKB (BANDAR ABBAS INT, IR) observed 1830 UTC 23 August 2019
Temperature: 32.0°C (90°F)
Dewpoint: 28.0°C (82°F) [RH = 80%]
Pressure (altimeter): 29.62 inches Hg (1003.0 mb)
Winds: from the ENE (60 degrees) at 7 MPH (6 knots; 3.1 m/s)
Visibility: 3 miles ( 5 km)
Ceiling: at least 12,000 feet AGL
Clouds: sky clear below 12,000 feet AGL
Weather: BR  (mist)

METAR text: OIKB 231800Z 05006KT 5000 BR NSC 32/28 Q1003 A2963
Conditions at: OIKB (BANDAR ABBAS INT, IR) observed 1800 UTC 23 August 2019
Temperature: 32.0°C (90°F)
Dewpoint: 28.0°C (82°F) [RH = 80%]
Pressure (altimeter): 29.62 inches Hg (1003.0 mb)
Winds: from the NE (50 degrees) at 7 MPH (6 knots; 3.1 m/s)
Visibility: 3 miles ( 5 km)
Ceiling: at least 12,000 feet AGL
Clouds: sky clear below 12,000 feet AGL
Weather: BR  (mist)

METAR text: OIKB 231730Z 05006KT 5000 BR NSC 32/28 Q1003 A2963
Conditions at: OIKB (BANDAR ABBAS INT, IR) observed 1730 UTC 23 August 2019
Temperature: 32.0°C (90°F)
Dewpoint: 28.0°C (82°F) [RH = 80%]
Pressure (altimeter): 29.62 inches Hg (1003.0 mb)
Winds: from the NE (50 degrees) at 7 MPH (6 knots; 3.1 m/s)
Visibility: 3 miles ( 5 km)
Ceiling: at least 12,000 feet AGL
Clouds: sky clear below 12,000 feet AGL
Weather: BR  (mist)

METAR text: OIKB 231700Z 35004KT 5000 BR NSC 32/28 Q1003 A2962
Conditions at: OIKB (BANDAR ABBAS INT, IR) observed 1700 UTC 23 August 2019
Temperature: 32.0°C (90°F)
Dewpoint: 28.0°C (82°F) [RH = 80%]
Pressure (altimeter): 29.62 inches Hg (1003.0 mb)
Winds: from the N (350 degrees) at 5 MPH (4 knots; 2.1 m/s)
Visibility: 3 miles ( 5 km)
Ceiling: at least 12,000 feet AGL
Clouds: sky clear below 12,000 feet AGL
Weather: BR  (mist)

METAR text: OIKB 231630Z 36004KT 5000 BR NSC 32/28 Q1003 A2962
Conditions at: OIKB (BANDAR ABBAS INT, IR) observed 1630 UTC 23 August 2019
Temperature: 32.0°C (90°F)
Dewpoint: 28.0°C (82°F) [RH = 80%]
Pressure (altimeter): 29.62 inches Hg (1003.0 mb)
Winds: from the N (360 degrees) at 5 MPH (4 knots; 2.1 m/s)
Visibility: 3 miles ( 5 km)
Ceiling: at least 12,000 feet AGL
Clouds: sky clear below 12,000 feet AGL
Weather: BR  (mist)

METAR text: OIKB 231600Z 09004KT 5000 HZ NSC 32/28 Q1003 A2962
Conditions at: OIKB (BANDAR ABBAS INT, IR) observed 1600 UTC 23 August 2019
Temperature: 32.0°C (90°F)
Dewpoint: 28.0°C (82°F) [RH = 80%]
Pressure (altimeter): 29.62 inches Hg (1003.0 mb)
Winds: from the E (90 degrees) at 5 MPH (4 knots; 2.1 m/s)
Visibility: 3 miles ( 5 km)
Ceiling: at least 12,000 feet AGL
Clouds: sky clear below 12,000 feet AGL
Weather: HZ  (haze)

METAR text: OIKB 231530Z 11006KT 5000 HZ FEW025 33/28 Q1002 A2961
Conditions at: OIKB (BANDAR ABBAS INT, IR) observed 1530 UTC 23 August 2019
Temperature: 33.0°C (91°F)
Dewpoint: 28.0°C (82°F) [RH = 75%]
Pressure (altimeter): 29.59 inches Hg (1002.0 mb)
Winds: from the ESE (110 degrees) at 7 MPH (6 knots; 3.1 m/s)
Visibility: 3 miles ( 5 km)
Ceiling: at least 12,000 feet AGL
Clouds: few clouds at 2500 feet AGL
Weather: HZ  (haze)

METAR text: OIKB 231500Z 12006KT 5000 HZ FEW025 33/28 Q1002 A2960 NOSIG
Conditions at: OIKB (BANDAR ABBAS INT, IR) observed 1500 UTC 23 August 2019
Temperature: 33.0°C (91°F)
Dewpoint: 28.0°C (82°F) [RH = 75%]
Pressure (altimeter): 29.59 inches Hg (1002.0 mb)
Winds: from the ESE (120 degrees) at 7 MPH (6 knots; 3.1 m/s)
Visibility: 3 miles ( 5 km)
Ceiling: at least 12,000 feet AGL
Clouds: few clouds at 2500 feet AGL
Weather: HZ  (haze)

METAR text: OIKB 231430Z 17008KT 5000 HZ FEW025 33/29 Q1002 A2959
Conditions at: OIKB (BANDAR ABBAS INT, IR) observed 1430 UTC 23 August 2019
Temperature: 33.0°C (91°F)
Dewpoint: 29.0°C (84°F) [RH = 80%]
Pressure (altimeter): 29.59 inches Hg (1002.0 mb)
Winds: from the S (170 degrees) at 9 MPH (8 knots; 4.1 m/s)
Visibility: 3 miles ( 5 km)
Ceiling: at least 12,000 feet AGL
Clouds: few clouds at 2500 feet AGL
Weather: HZ  (haze)

METAR text: OIKB 231400Z 17008KT 5000 HZ FEW025 34/29 Q1001 A2958 NOSIG
Conditions at: OIKB (BANDAR ABBAS INT, IR) observed 1400 UTC 23 August 2019
Temperature: 34.0°C (93°F)
Dewpoint: 29.0°C (84°F) [RH = 75%]
Pressure (altimeter): 29.56 inches Hg (1001.0 mb)
Winds: from the S (170 degrees) at 9 MPH (8 knots; 4.1 m/s)
Visibility: 3 miles ( 5 km)
Ceiling: at least 12,000 feet AGL
Clouds: few clouds at 2500 feet AGL
Weather: HZ  (haze)

METAR text: OIKB 231330Z 16008KT 5000 HZ FEW025 34/29 Q1001 A2958
Conditions at: OIKB (BANDAR ABBAS INT, IR) observed 1330 UTC 23 August 2019
Temperature: 34.0°C (93°F)
Dewpoint: 29.0°C (84°F) [RH = 75%]
Pressure (altimeter): 29.56 inches Hg (1001.0 mb)
Winds: from the SSE (160 degrees) at 9 MPH (8 knots; 4.1 m/s)
Visibility: 3 miles ( 5 km)
Ceiling: at least 12,000 feet AGL
Clouds: few clouds at 2500 feet AGL
Weather: HZ  (haze)

METAR text: OIKB 231300Z 16008KT 5000 HZ FEW025 34/29 Q1001 A2958 NOSIG
Conditions at: OIKB (BANDAR ABBAS INT, IR) observed 1300 UTC 23 August 2019
Temperature: 34.0°C (93°F)
Dewpoint: 29.0°C (84°F) [RH = 75%]
Pressure (altimeter): 29.56 inches Hg (1001.0 mb)
Winds: from the SSE (160 degrees) at 9 MPH (8 knots; 4.1 m/s)
Visibility: 3 miles ( 5 km)
Ceiling: at least 12,000 feet AGL
Clouds: few clouds at 2500 feet AGL
Weather: HZ  (haze)

METAR text: OIKB 231230Z 16008KT 6000 FEW025 34/29 Q1001 A2959
Conditions at: OIKB (BANDAR ABBAS INT, IR) observed 1230 UTC 23 August 2019
Temperature: 34.0°C (93°F)
Dewpoint: 29.0°C (84°F) [RH = 75%]
Pressure (altimeter): 29.56 inches Hg (1001.0 mb)
Winds: from the SSE (160 degrees) at 9 MPH (8 knots; 4.1 m/s)
Visibility: 4 miles ( 6 km)
Ceiling: at least 12,000 feet AGL
Clouds: few clouds at 2500 feet AGL
Weather: no significant weather observed at this time

METAR text: OIKB 231200Z 17008KT 6000 FEW025 35/29 Q1002 A2959 NOSIG
Conditions at: OIKB (BANDAR ABBAS INT, IR) observed 1200 UTC 23 August 2019
Temperature: 35.0°C (95°F)
Dewpoint: 29.0°C (84°F) [RH = 71%]
Pressure (altimeter): 29.59 inches Hg (1002.0 mb)
Winds: from the S (170 degrees) at 9 MPH (8 knots; 4.1 m/s)
Visibility: 4 miles ( 6 km)
Ceiling: at least 12,000 feet AGL
Clouds: few clouds at 2500 feet AGL
Weather: no significant weather observed at this time

METAR text: OIKB 231130Z 16008KT 6000 FEW025 35/29 Q1002 A2959
Conditions at: OIKB (BANDAR ABBAS INT, IR) observed 1130 UTC 23 August 2019
Temperature: 35.0°C (95°F)
Dewpoint: 29.0°C (84°F) [RH = 71%]
Pressure (altimeter): 29.59 inches Hg (1002.0 mb)
Winds: from the SSE (160 degrees) at 9 MPH (8 knots; 4.1 m/s)
Visibility: 4 miles ( 6 km)
Ceiling: at least 12,000 feet AGL
Clouds: few clouds at 2500 feet AGL
Weather: no significant weather observed at this time

METAR text: OIKB 231100Z 16010KT 6000 FEW025 35/28 Q1002 A2960 NOSIG
Conditions at: OIKB (BANDAR ABBAS INT, IR) observed 1100 UTC 23 August 2019
Temperature: 35.0°C (95°F)
Dewpoint: 28.0°C (82°F) [RH = 67%]
Pressure (altimeter): 29.59 inches Hg (1002.0 mb)
Winds: from the SSE (160 degrees) at 12 MPH (10 knots; 5.1 m/s)
Visibility: 4 miles ( 6 km)
Ceiling: at least 12,000 feet AGL
Clouds: few clouds at 2500 feet AGL
Weather: no significant weather observed at this time

METAR text: OIKB 231030Z 17010KT 6000 FEW025 35/28 Q1002 A2961
Conditions at: OIKB (BANDAR ABBAS INT, IR) observed 1030 UTC 23 August 2019
Temperature: 35.0°C (95°F)
Dewpoint: 28.0°C (82°F) [RH = 67%]
Pressure (altimeter): 29.59 inches Hg (1002.0 mb)
Winds: from the S (170 degrees) at 12 MPH (10 knots; 5.1 m/s)
Visibility: 4 miles ( 6 km)
Ceiling: at least 12,000 feet AGL
Clouds: few clouds at 2500 feet AGL
Weather: no significant weather observed at this time

METAR text: OIKB 231000Z 18010KT 6000 FEW025TCU 35/28 Q1003 A2962 NOSIG
Conditions at: OIKB (BANDAR ABBAS INT, IR) observed 1000 UTC 23 August 2019
Temperature: 35.0°C (95°F)
Dewpoint: 28.0°C (82°F) [RH = 67%]
Pressure (altimeter): 29.62 inches Hg (1003.0 mb)
Winds: from the S (180 degrees) at 12 MPH (10 knots; 5.1 m/s)
Visibility: 4 miles ( 6 km)
Ceiling: at least 12,000 feet AGL
Clouds: few clouds at 2500 feet AGL
Weather: no significant weather observed at this time

METAR text: OIKB 230930Z 18010KT 6000 FEW020 35/28 Q1003 A2964
Conditions at: OIKB (BANDAR ABBAS INT, IR) observed 0930 UTC 23 August 2019
Temperature: 35.0°C (95°F)
Dewpoint: 28.0°C (82°F) [RH = 67%]
Pressure (altimeter): 29.62 inches Hg (1003.0 mb)
Winds: from the S (180 degrees) at 12 MPH (10 knots; 5.1 m/s)
Visibility: 4 miles ( 6 km)
Ceiling: at least 12,000 feet AGL
Clouds: few clouds at 2000 feet AGL
Weather: no significant weather observed at this time

METAR text: OIKB 230900Z 18014KT 6000 FEW025 35/28 Q1003 A2964 NOSIG
Conditions at: OIKB (BANDAR ABBAS INT, IR) observed 0900 UTC 23 August 2019
Temperature: 35.0°C (95°F)
Dewpoint: 28.0°C (82°F) [RH = 67%]
Pressure (altimeter): 29.62 inches Hg (1003.0 mb)
Winds: from the S (180 degrees) at 16 MPH (14 knots; 7.2 m/s)
Visibility: 4 miles ( 6 km)
Ceiling: at least 12,000 feet AGL
Clouds: few clouds at 2500 feet AGL
Weather: no significant weather observed at this time

METAR text: OIKB 230830Z 18014KT 6000 FEW020 35/27 Q1004 A2965
Conditions at: OIKB (BANDAR ABBAS INT, IR) observed 0830 UTC 23 August 2019
Temperature: 35.0°C (95°F)
Dewpoint: 27.0°C (81°F) [RH = 63%]
Pressure (altimeter): 29.65 inches Hg (1004.0 mb)
Winds: from the S (180 degrees) at 16 MPH (14 knots; 7.2 m/s)
Visibility: 4 miles ( 6 km)
Ceiling: at least 12,000 feet AGL
Clouds: few clouds at 2000 feet AGL
Weather: no significant weather observed at this time

METAR text: OIKB 230800Z 16012KT 6000 SCT025 35/27 Q1004 A2965
Conditions at: OIKB (BANDAR ABBAS INT, IR) observed 0800 UTC 23 August 2019
Temperature: 35.0°C (95°F)
Dewpoint: 27.0°C (81°F) [RH = 63%]
Pressure (altimeter): 29.65 inches Hg (1004.0 mb)
Winds: from the SSE (160 degrees) at 14 MPH (12 knots; 6.2 m/s)
Visibility: 4 miles ( 6 km)
Ceiling: at least 12,000 feet AGL
Clouds: scattered clouds at 2500 feet AGL
Weather: no significant weather observed at this time

METAR text: OIKB 230730Z 14008KT 6000 BKN025 35/28 Q1004 A2966
Conditions at: OIKB (BANDAR ABBAS INT, IR) observed 0730 UTC 23 August 2019
Temperature: 35.0°C (95°F)
Dewpoint: 28.0°C (82°F) [RH = 67%]
Pressure (altimeter): 29.65 inches Hg (1004.0 mb)
Winds: from the SE (140 degrees) at 9 MPH (8 knots; 4.1 m/s)
Visibility: 4 miles ( 6 km)
Ceiling: 2500 feet AGL
Clouds: broken clouds at 2500 feet AGL
Weather: no significant weather observed at this time

METAR text: OIKB 230700Z 14010KT 6000 BKN025 35/28 Q1004 A2966 NOSIG
Conditions at: OIKB (BANDAR ABBAS INT, IR) observed 0700 UTC 23 August 2019
Temperature: 35.0°C (95°F)
Dewpoint: 28.0°C (82°F) [RH = 67%]
Pressure (altimeter): 29.65 inches Hg (1004.0 mb)
Winds: from the SE (140 degrees) at 12 MPH (10 knots; 5.1 m/s)
Visibility: 4 miles ( 6 km)
Ceiling: 2500 feet AGL
Clouds: broken clouds at 2500 feet AGL
Weather: no significant weather observed at this time

METAR text: OIKB 230630Z 14008KT 6000 BKN025 34/28 Q1004 A2966
Conditions at: OIKB (BANDAR ABBAS INT, IR) observed 0630 UTC 23 August 2019
Temperature: 34.0°C (93°F)
Dewpoint: 28.0°C (82°F) [RH = 71%]
Pressure (altimeter): 29.65 inches Hg (1004.0 mb)
Winds: from the SE (140 degrees) at 9 MPH (8 knots; 4.1 m/s)
Visibility: 4 miles ( 6 km)
Ceiling: 2500 feet AGL
Clouds: broken clouds at 2500 feet AGL
Weather: no significant weather observed at this time

METAR text: OIKB 230600Z 17008KT 6000 SCT025 34/28 Q1004 A2966 NOSIG
Conditions at: OIKB (BANDAR ABBAS INT, IR) observed 0600 UTC 23 August 2019
Temperature: 34.0°C (93°F)
Dewpoint: 28.0°C (82°F) [RH = 71%]
Pressure (altimeter): 29.65 inches Hg (1004.0 mb)
Winds: from the S (170 degrees) at 9 MPH (8 knots; 4.1 m/s)
Visibility: 4 miles ( 6 km)
Ceiling: at least 12,000 feet AGL
Clouds: scattered clouds at 2500 feet AGL
Weather: no significant weather observed at this time

METAR text: OIKB 230530Z 16008KT 6000 FEW025 34/28 Q1004 A2966
Conditions at: OIKB (BANDAR ABBAS INT, IR) observed 0530 UTC 23 August 2019
Temperature: 34.0°C (93°F)
Dewpoint: 28.0°C (82°F) [RH = 71%]
Pressure (altimeter): 29.65 inches Hg (1004.0 mb)
Winds: from the SSE (160 degrees) at 9 MPH (8 knots; 4.1 m/s)
Visibility: 4 miles ( 6 km)
Ceiling: at least 12,000 feet AGL
Clouds: few clouds at 2500 feet AGL
Weather: no significant weather observed at this time

METAR text: OIKB 230500Z 16006KT 6000 FEW025 33/28 Q1004 A2965 NOSIG
Conditions at: OIKB (BANDAR ABBAS INT, IR) observed 0500 UTC 23 August 2019
Temperature: 33.0°C (91°F)
Dewpoint: 28.0°C (82°F) [RH = 75%]
Pressure (altimeter): 29.65 inches Hg (1004.0 mb)
Winds: from the SSE (160 degrees) at 7 MPH (6 knots; 3.1 m/s)
Visibility: 4 miles ( 6 km)
Ceiling: at least 12,000 feet AGL
Clouds: few clouds at 2500 feet AGL
Weather: no significant weather observed at this time

METAR text: OIKB 230430Z 15004KT 6000 FEW020 32/28 Q1003 A2965
Conditions at: OIKB (BANDAR ABBAS INT, IR) observed 0430 UTC 23 August 2019
Temperature: 32.0°C (90°F)
Dewpoint: 28.0°C (82°F) [RH = 80%]
Pressure (altimeter): 29.62 inches Hg (1003.0 mb)
Winds: from the SSE (150 degrees) at 5 MPH (4 knots; 2.1 m/s)
Visibility: 4 miles ( 6 km)
Ceiling: at least 12,000 feet AGL
Clouds: few clouds at 2000 feet AGL
Weather: no significant weather observed at this time

METAR text: OIKB 230400Z 14004KT 6000 FEW020 32/28 Q1003 A2965 NOSIG
Conditions at: OIKB (BANDAR ABBAS INT, IR) observed 0400 UTC 23 August 2019
Temperature: 32.0°C (90°F)
Dewpoint: 28.0°C (82°F) [RH = 80%]
Pressure (altimeter): 29.62 inches Hg (1003.0 mb)
Winds: from the SE (140 degrees) at 5 MPH (4 knots; 2.1 m/s)
Visibility: 4 miles ( 6 km)
Ceiling: at least 12,000 feet AGL
Clouds: few clouds at 2000 feet AGL
Weather: no significant weather observed at this time

METAR text: OIKB 230330Z VRB02KT 6000 FEW030 32/28 Q1004 A2965
Conditions at: OIKB (BANDAR ABBAS INT, IR) observed 0330 UTC 23 August 2019
Temperature: 32.0°C (90°F)
Dewpoint: 28.0°C (82°F) [RH = 80%]
Pressure (altimeter): 29.65 inches Hg (1004.0 mb)
Winds: variable direction winds at 2 MPH (2 knots; 1.0 m/s)
Visibility: 4 miles ( 6 km)
Ceiling: at least 12,000 feet AGL
Clouds: few clouds at 3000 feet AGL
Weather: no significant weather observed at this time

METAR text: OIKB 230300Z 33004KT 6000 NSC 30/27 Q1003 A2964 NOSIG
Conditions at: OIKB (BANDAR ABBAS INT, IR) observed 0300 UTC 23 August 2019
Temperature: 30.0°C (86°F)
Dewpoint: 27.0°C (81°F) [RH = 84%]
Pressure (altimeter): 29.62 inches Hg (1003.0 mb)
Winds: from the NNW (330 degrees) at 5 MPH (4 knots; 2.1 m/s)
Visibility: 4 miles ( 6 km)
Ceiling: at least 12,000 feet AGL
Clouds: sky clear below 12,000 feet AGL
Weather: no significant weather observed at this time

METAR text: OIKB 230230Z 33004KT 6000 NSC 29/27 Q1003 A2963
Conditions at: OIKB (BANDAR ABBAS INT, IR) observed 0230 UTC 23 August 2019
Temperature: 29.0°C (84°F)
Dewpoint: 27.0°C (81°F) [RH = 89%]
Pressure (altimeter): 29.62 inches Hg (1003.0 mb)
Winds: from the NNW (330 degrees) at 5 MPH (4 knots; 2.1 m/s)
Visibility: 4 miles ( 6 km)
Ceiling: at least 12,000 feet AGL
Clouds: sky clear below 12,000 feet AGL
Weather: no significant weather observed at this time

METAR text: OIKB 230200Z 33004KT 6000 NSC 29/26 Q1003 A2962
Conditions at: OIKB (BANDAR ABBAS INT, IR) observed 0200 UTC 23 August 2019
Temperature: 29.0°C (84°F)
Dewpoint: 26.0°C (79°F) [RH = 84%]
Pressure (altimeter): 29.62 inches Hg (1003.0 mb)
Winds: from the NNW (330 degrees) at 5 MPH (4 knots; 2.1 m/s)
Visibility: 4 miles ( 6 km)
Ceiling: at least 12,000 feet AGL
Clouds: sky clear below 12,000 feet AGL
Weather: no significant weather observed at this time

Forecast for: OIKB (BANDAR ABBAS INT, IR)
Text: TAF OIKB 241130Z 2412/2518 12008KT 5000 HZ/BR FEW025
Forecast period: 1200 UTC 24 August 2019 to 0500 UTC 25 August 2019
Forecast type: FROM: standard forecast or significant change
Winds: from the ESE (120 degrees) at 9 MPH (8 knots; 4.1 m/s)
Visibility: 3 miles (5 km)
Ceiling: at least 12,000 feet AGL
Clouds: few clouds at 2500 feet AGL
Weather: HZ BR  (haze, mist)
Text: TEMPO 2412/2415 18014KT FEW025CB SCT030 SCT090
Forecast period: 1200 to 1500 UTC 24 August 2019
Forecast type: TEMPORARY: The following changes expected for less than half the time period
Winds: from the S (180 degrees) at 16 MPH (14 knots; 7.2 m/s)
Visibility: missing
Ceiling: at least 12,000 feet AGL
Clouds: few clouds at 2500 feet AGL
scattered clouds at 3000 feet AGL
scattered clouds at 9000 feet AGL
Weather: no significant weather forecast for this period
Text: TEMPO 2420/2503 3000 BR SCT025
Forecast period: 2000 UTC 24 August 2019 to 0300 UTC 25 August 2019
Forecast type: TEMPORARY: The following changes expected for less than half the time period
Visibility: 1.86 miles (2.99 km)
Ceiling: at least 12,000 feet AGL
Clouds: scattered clouds at 2500 feet AGL
Weather: BR  (mist)
Text: BECMG 2505/2507 6000 FEW030
Forecast period: 0500 to 1700 UTC 25 August 2019
Forecast type: BECOMING: Conditions expected to become as follows by 0700 UTC 25 August 2019
Winds: from the ESE (120 degrees) at 9 MPH (8 knots; 4.1 m/s)
Visibility: 4 miles (6 km)
Ceiling: at least 12,000 feet AGL
Clouds: few clouds at 3000 feet AGL
Weather: HZ BR  (haze, mist)
Text: TEMPO 2508/2515 20016KT
Forecast period: 0800 to 1500 UTC 25 August 2019
Forecast type: TEMPORARY: The following changes expected for less than half the time period
Winds: from the SSW (200 degrees) at 18 MPH (16 knots; 8.2 m/s)
Visibility: missing
Ceiling: unknown
Clouds: missing
Weather: no significant weather forecast for this period
Text: BECMG 2517/2518 5000 HZ/BR
Forecast period: 1700 to 1800 UTC 25 August 2019
Forecast type: BECOMING: Conditions expected to become as follows by 1800 UTC 25 August 2019
Winds: from the ESE (120 degrees) at 9 MPH (8 knots; 4.1 m/s)
Visibility: 3 miles (5 km)
Ceiling: at least 12,000 feet AGL
Clouds: few clouds at 3000 feet AGL
Weather: HZ BR  (haze, mist)